KOKC/OKC METAR and TAF weather

Enter ICAO airport designator
Station Type Date Time Source
KOKC METAR 2020/08/12 16:59 UTC NOAA

KOKC 121659Z 08007KT 10SM BKN015 26/21 A3000 RMK AO2 T02610211


Station Type Date Time Source
KOKC Decoded METAR 2020/08/12 16:59 UTC NOAA

WILL ROGERS WORLD AIRPORT, OK, United States (KOKC) 35-23N 97-36W 390M
Aug 12, 2020 - 12:59 PM EDT / 2020.08.12 1659 UTC
Wind: from the E (080 degrees) at 8 MPH (7 KT):0
Visibility: 10 mile(s):0
Sky conditions: mostly cloudy
Temperature: 79.0 F (26.1 C)
Dew Point: 70.0 F (21.1 C)
Relative Humidity: 73%
Pressure (altimeter): 30 in. Hg (1015 hPa)
ob: KOKC 121659Z 08007KT 10SM BKN015 26/21 A3000 RMK AO2 T02610211
cycle: 17

Station Type Date Time Source
KOKC TAF 2020/08/12 14:03 UTC NOAA

TAF
AMD KOKC 121400Z 1214/1312 12006KT P6SM BKN008
TEMPO 1214/1215 OVC005
FM121600 14010KT P6SM SCT250

Example: see airport list